Ana Sayfa
METAR-TAF:

METAR-TAF

Havaalanları :

Carnarvon, Avustralya

Enlem: 24-52-50S, Boylam: 113-40-20E, yükseklik: 4 m

Güncel hava durumu gözlemi

Rapor saat 22:00 UTC de 43 dakika önce yapıldı.
Rüzgar batıdan 13 kt
Sıcaklık 19°C
Nem 73%
Basınç 1010 hPa
Görüş mesafesi 10 km veya daha fazla
6900 ft yükseklikte parçalı çok bulutlu

METAR: YCAR 092200Z AUTO 26013KT 9999 // BKN069 19/14 Q1010

Saat: 06:43 (22:43 UTC)


TAF: eksik

4.000'den fazla havaalanı için hava durumu gözlemleri ve tahminleri (METAR ve TAF raporları).

Kullanılabilir istasyonlar harita üzerinde sarı ve kırmızı noktalarla gösterilir.

İstasyonun adını görmek için fareyi noktanın üzerinde gezdirin.

Sonrasında hava gözlem ve tahminlerini görmek için tıklayın.

Haritayı değiştirmek için: yaklaştırmak için siyah artı işaretli yeşil düğmeye ve uzaklaştırmak için de eksi işaretli düğmeye hızla tıklayın; bitişik haritalar için yeşil okları kullanın.


METAR-TAF: